createdAt,value
2018-04-20T00:00:40.811Z,21.00
2018-04-20T00:03:09.902Z,21.10
2018-04-20T00:05:38.738Z,21.10
2018-04-20T00:08:07.598Z,21.10
2018-04-20T00:10:36.435Z,21.00
2018-04-20T00:13:06.051Z,20.90
2018-04-20T00:15:35.651Z,20.90
2018-04-20T00:18:05.270Z,20.80
2018-04-20T00:20:34.882Z,20.80
2018-04-20T00:23:03.733Z,20.70
2018-04-20T00:25:32.578Z,20.80
2018-04-20T00:28:01.434Z,20.80
2018-04-20T00:30:31.044Z,20.70
2018-04-20T00:33:00.636Z,20.70
2018-04-20T00:35:30.256Z,20.70
2018-04-20T00:37:59.901Z,20.60
2018-04-20T00:40:28.754Z,20.50
2018-04-20T00:42:57.564Z,20.60
2018-04-20T00:45:26.397Z,20.50
2018-04-20T00:47:55.984Z,20.50
2018-04-20T00:50:24.827Z,20.40
2018-04-20T00:52:53.661Z,20.40
2018-04-20T00:57:59.057Z,20.40
2018-04-20T01:00:27.913Z,20.40
2018-04-20T01:02:57.536Z,20.20
2018-04-20T01:05:27.183Z,20.20
2018-04-20T01:07:56.037Z,20.10
2018-04-20T01:10:25.638Z,20.10
2018-04-20T01:12:55.248Z,20.00
2018-04-20T01:15:24.840Z,20.00
2018-04-20T01:17:53.715Z,20.00
2018-04-20T01:20:22.518Z,20.00
2018-04-20T01:22:51.350Z,20.00
2018-04-20T01:25:20.604Z,19.90
2018-04-20T01:27:49.436Z,19.90
2018-04-20T01:30:18.284Z,19.90
2018-04-20T01:32:47.115Z,19.90
2018-04-20T01:35:15.944Z,19.90
2018-04-20T01:37:44.796Z,19.90
2018-04-20T01:40:14.713Z,19.80
2018-04-20T01:42:43.553Z,19.80
2018-04-20T01:45:12.384Z,19.80
2018-04-20T01:47:41.997Z,19.80
2018-04-20T01:50:11.590Z,19.80
2018-04-20T01:52:41.212Z,19.80
2018-04-20T01:55:10.824Z,19.80
2018-04-20T01:57:39.675Z,19.80
2018-04-20T02:00:09.282Z,19.70
2018-04-20T02:02:38.131Z,19.70
2018-04-20T02:05:06.964Z,19.70
2018-04-20T02:07:36.595Z,19.50
2018-04-20T02:10:05.440Z,19.50
2018-04-20T02:12:34.277Z,19.50
2018-04-20T02:15:03.140Z,19.40
2018-04-20T02:17:31.992Z,19.40
2018-04-20T02:20:00.844Z,19.30
2018-04-20T02:22:29.686Z,19.30
2018-04-20T02:24:58.548Z,19.30
2018-04-20T02:27:27.385Z,19.30
2018-04-20T02:29:56.231Z,19.30
2018-04-20T02:32:25.074Z,19.30
2018-04-20T02:34:54.692Z,19.40
2018-04-20T02:37:24.345Z,19.40
2018-04-20T02:39:54.128Z,19.30
2018-04-20T02:42:23.017Z,19.40
2018-04-20T02:44:51.860Z,19.40
2018-04-20T02:47:20.701Z,19.40
2018-04-20T02:49:50.752Z,19.40
2018-04-20T02:52:19.607Z,19.30
2018-04-20T02:54:49.954Z,19.30
2018-04-20T02:57:19.345Z,19.20
2018-04-20T02:59:48.432Z,19.10
2018-04-20T03:02:18.056Z,19.10
2018-04-20T03:04:46.938Z,19.00
2018-04-20T03:07:15.804Z,19.10
2018-04-20T03:09:45.542Z,19.00
2018-04-20T03:12:15.145Z,19.00
2018-04-20T03:14:44.772Z,19.00
2018-04-20T03:17:14.158Z,18.90
2018-04-20T03:19:43.002Z,19.00
2018-04-20T03:22:11.854Z,19.00
2018-04-20T03:24:40.691Z,19.00
2018-04-20T03:27:10.433Z,18.90
2018-04-20T03:29:39.268Z,18.80
2018-04-20T03:32:08.148Z,18.80
2018-04-20T03:34:36.981Z,18.70
2018-04-20T03:37:06.606Z,18.70
2018-04-20T03:39:36.297Z,18.70
2018-04-20T03:42:05.877Z,18.70
2018-04-20T03:44:35.490Z,18.70
2018-04-20T03:47:05.120Z,18.70
2018-04-20T03:49:34.012Z,18.60
2018-04-20T03:52:02.870Z,18.70
2018-04-20T03:54:32.489Z,18.60
2018-04-20T03:57:01.321Z,18.60
2018-04-20T03:59:30.180Z,18.60
2018-04-20T04:01:59.024Z,18.50
2018-04-20T04:04:27.877Z,18.40
2018-04-20T04:06:56.734Z,18.40
2018-04-20T04:09:25.691Z,18.40
2018-04-20T04:11:54.505Z,18.40
2018-04-20T04:14:24.115Z,18.40
2018-04-20T04:17:05.656Z,18.50
2018-04-20T04:19:47.101Z,18.40
2018-04-20T04:22:29.313Z,18.40
2018-04-20T04:25:10.191Z,18.30
2018-04-20T04:27:45.917Z,18.20
2018-04-20T04:30:15.549Z,18.20
2018-04-20T04:32:44.399Z,18.20
2018-04-20T04:35:14.016Z,18.00
2018-04-20T04:37:43.616Z,18.00
2018-04-20T04:40:13.224Z,17.90
2018-04-20T04:42:42.061Z,17.90
2018-04-20T04:45:11.906Z,18.00
2018-04-20T04:47:40.739Z,18.00
2018-04-20T04:50:09.587Z,18.10
2018-04-20T04:52:38.460Z,18.20
2018-04-20T04:55:07.328Z,18.20
2018-04-20T04:57:36.176Z,18.10
2018-04-20T05:00:05.026Z,17.90
2018-04-20T05:02:34.630Z,18.00
2018-04-20T05:05:03.498Z,17.90
2018-04-20T05:07:32.348Z,17.80
2018-04-20T05:10:01.209Z,17.60
2018-04-20T05:12:30.807Z,17.60
2018-04-20T05:15:00.448Z,17.80
2018-04-20T05:17:29.312Z,17.70
2018-04-20T05:19:58.932Z,18.00
2018-04-20T05:22:27.823Z,17.90
2018-04-20T05:24:56.973Z,18.00
2018-04-20T05:27:25.820Z,18.00
2018-04-20T05:29:54.673Z,17.90
2018-04-20T05:32:24.289Z,17.90
2018-04-20T05:34:53.884Z,18.00
2018-04-20T05:37:22.783Z,17.90
2018-04-20T05:39:52.381Z,17.90
2018-04-20T05:42:21.992Z,18.00
2018-04-20T05:44:50.825Z,18.00
2018-04-20T05:47:19.677Z,18.10
2018-04-20T05:49:48.524Z,18.10
2018-04-20T05:52:17.373Z,18.20
2018-04-20T05:54:46.574Z,18.30
2018-04-20T05:57:15.427Z,18.30
2018-04-20T05:59:45.040Z,18.30
2018-04-20T06:02:14.669Z,18.30
2018-04-20T06:04:43.505Z,18.20
2018-04-20T06:07:12.357Z,18.30
2018-04-20T06:09:42.217Z,18.40
2018-04-20T06:12:11.079Z,18.40
2018-04-20T06:14:39.936Z,18.40
2018-04-20T06:17:08.791Z,18.50
2018-04-20T06:19:38.427Z,18.50
2018-04-20T06:22:07.283Z,18.50
2018-04-20T06:24:36.161Z,18.50
2018-04-20T06:27:05.014Z,18.60
2018-04-20T06:29:34.019Z,18.60
2018-04-20T06:32:02.861Z,18.70
2018-04-20T06:34:32.484Z,18.90
2018-04-20T06:37:04.616Z,18.90
2018-04-20T06:39:34.232Z,19.20
2018-04-20T06:42:03.851Z,19.30
2018-04-20T06:44:32.722Z,19.20
2018-04-20T06:47:02.953Z,19.40
2018-04-20T06:49:31.805Z,19.40
2018-04-20T06:52:00.662Z,19.50
2018-04-20T06:54:29.485Z,19.60
2018-04-20T06:56:58.343Z,19.70
2018-04-20T06:59:28.700Z,19.90
2018-04-20T07:01:57.608Z,19.90
2018-04-20T07:04:26.468Z,20.00
2018-04-20T07:06:56.093Z,20.30
2018-04-20T07:09:24.929Z,20.30
2018-04-20T07:11:53.752Z,20.50
2018-04-20T07:14:23.373Z,20.90
2018-04-20T07:16:52.263Z,20.80
2018-04-20T07:19:21.084Z,21.00
2018-04-20T07:21:49.936Z,21.20
2018-04-20T07:24:19.549Z,21.60
2018-04-20T07:26:48.381Z,21.60
2018-04-20T07:29:17.213Z,21.80
2018-04-20T07:31:46.818Z,22.20
2018-04-20T07:34:16.427Z,22.40
2018-04-20T07:36:46.032Z,22.60
2018-04-20T07:39:15.644Z,22.80
2018-04-20T07:41:44.608Z,22.70
2018-04-20T07:44:13.454Z,22.90
2018-04-20T07:46:42.267Z,23.10
2018-04-20T07:49:11.149Z,23.20
2018-04-20T07:51:40.737Z,23.40
2018-04-20T07:54:10.268Z,23.40
2018-04-20T07:56:39.875Z,23.80
2018-04-20T07:59:09.702Z,24.10
2018-04-20T08:01:38.545Z,24.10
2018-04-20T08:04:07.393Z,24.10
2018-04-20T08:06:36.209Z,24.10
2018-04-20T08:09:05.890Z,24.40
2018-04-20T08:11:34.736Z,24.60
2018-04-20T08:14:03.568Z,24.80
2018-04-20T08:16:32.504Z,25.00
2018-04-20T08:19:01.328Z,25.00
2018-04-20T08:21:30.156Z,25.00
2018-04-20T08:23:59.011Z,25.30
2018-04-20T08:26:28.627Z,25.60
2018-04-20T08:28:57.498Z,25.60
2018-04-20T08:31:27.178Z,26.00
2018-04-20T08:33:56.005Z,25.90
2018-04-20T08:36:25.621Z,26.30
2018-04-20T08:38:55.224Z,26.50
2018-04-20T08:41:24.053Z,26.40
2018-04-20T08:43:53.876Z,26.70
2018-04-20T08:46:27.668Z,26.80
2018-04-20T08:48:56.543Z,26.90
2018-04-20T08:51:25.395Z,26.90
2018-04-20T08:53:55.017Z,27.00
2018-04-20T08:56:24.606Z,27.20
2018-04-20T08:58:53.433Z,27.20
2018-04-20T09:01:22.292Z,27.50
2018-04-20T09:03:51.878Z,28.20
2018-04-20T09:06:20.724Z,28.10
2018-04-20T09:08:49.798Z,28.00
2018-04-20T09:11:18.685Z,27.90
2018-04-20T09:13:47.509Z,27.90
2018-04-20T09:16:16.352Z,28.10
2018-04-20T09:18:45.949Z,28.60
2018-04-20T09:21:15.566Z,28.80
2018-04-20T09:23:45.183Z,29.00
2018-04-20T09:26:14.780Z,29.20
2018-04-20T09:28:44.053Z,29.10
2018-04-20T09:31:12.898Z,29.70
2018-04-20T09:33:41.735Z,31.00
2018-04-20T09:36:10.572Z,32.20
2018-04-20T09:38:39.417Z,33.20
2018-04-20T09:41:08.277Z,34.30
2018-04-20T09:43:37.141Z,35.00
2018-04-20T09:46:06.757Z,36.40
2018-04-20T09:48:35.611Z,36.30
2018-04-20T09:51:04.458Z,37.00
2018-04-20T09:53:33.331Z,37.60
2018-04-20T09:56:02.192Z,37.80
2018-04-20T09:58:31.053Z,37.80
2018-04-20T10:01:05.753Z,37.50
2018-04-20T10:03:34.597Z,38.50
2018-04-20T10:06:03.428Z,39.10
2018-04-20T10:08:32.277Z,39.10
2018-04-20T10:11:01.119Z,39.10
2018-04-20T10:13:29.993Z,38.80
2018-04-20T10:15:58.832Z,38.80
2018-04-20T10:18:27.694Z,38.90
2018-04-20T10:20:56.537Z,39.00
2018-04-20T10:23:26.160Z,40.00
2018-04-20T10:25:55.001Z,40.00
2018-04-20T10:28:23.852Z,40.50
2018-04-20T10:30:52.727Z,40.10
2018-04-20T10:33:21.580Z,39.90
2018-04-20T10:35:50.490Z,40.40
2018-04-20T10:38:19.342Z,41.00
2018-04-20T10:40:48.202Z,41.40
2018-04-20T10:43:17.068Z,40.80
2018-04-20T10:45:46.037Z,41.30
2018-04-20T10:48:14.856Z,41.60
2018-04-20T10:50:44.499Z,40.90
2018-04-20T10:53:13.322Z,40.80
2018-04-20T10:55:42.174Z,40.50
2018-04-20T10:58:11.030Z,40.00
2018-04-20T11:00:39.904Z,39.60
2018-04-20T11:03:09.653Z,40.40
2018-04-20T11:05:38.489Z,40.40
2018-04-20T11:08:07.341Z,41.50
2018-04-20T11:10:36.213Z,42.10
2018-04-20T11:13:05.064Z,42.50
2018-04-20T11:15:33.922Z,42.20
2018-04-20T11:18:02.799Z,42.50
2018-04-20T11:20:31.676Z,43.10
2018-04-20T11:23:00.522Z,43.60
2018-04-20T11:25:30.153Z,44.20
2018-04-20T11:27:59.018Z,44.10
2018-04-20T11:30:29.108Z,44.50
2018-04-20T11:32:57.934Z,44.30
2018-04-20T11:35:27.565Z,43.70
2018-04-20T11:37:56.446Z,43.70
2018-04-20T11:40:26.085Z,45.40
2018-04-20T11:42:54.975Z,45.40
2018-04-20T11:45:23.939Z,44.30
2018-04-20T11:47:52.773Z,44.10
2018-04-20T11:50:22.392Z,44.40
2018-04-20T11:52:51.241Z,44.40
2018-04-20T11:55:20.894Z,42.30
2018-04-20T11:57:49.742Z,42.20
2018-04-20T12:00:18.585Z,42.10
2018-04-20T12:02:47.439Z,41.80
2018-04-20T12:05:17.046Z,41.20
2018-04-20T12:07:46.674Z,41.10
2018-04-20T12:10:15.522Z,41.10
2018-04-20T12:12:45.866Z,40.60
2018-04-20T12:15:17.048Z,38.40
2018-04-20T12:17:46.081Z,38.20
2018-04-20T12:20:15.698Z,35.40
2018-04-20T12:22:44.532Z,35.30
2018-04-20T12:25:13.777Z,34.30
2018-04-20T12:27:42.644Z,33.40
2018-04-20T12:30:11.449Z,32.50
2018-04-20T12:32:40.308Z,32.20
2018-04-20T12:35:09.154Z,31.90
2018-04-20T12:37:38.794Z,31.30
2018-04-20T12:40:08.386Z,31.20
2018-04-20T12:42:37.968Z,31.10
2018-04-20T12:45:07.582Z,30.90
2018-04-20T12:47:37.249Z,31.00
2018-04-20T12:50:06.349Z,31.00
2018-04-20T12:52:35.173Z,31.10
2018-04-20T12:55:04.779Z,30.80
2018-04-20T12:57:34.380Z,30.70
2018-04-20T13:00:04.017Z,30.90
2018-04-20T13:02:32.843Z,30.90
2018-04-20T13:05:01.688Z,31.10
2018-04-20T13:07:30.504Z,31.10
2018-04-20T13:09:59.358Z,30.90
2018-04-20T13:12:28.977Z,30.60
2018-04-20T13:14:57.830Z,30.60
2018-04-20T13:17:26.689Z,30.50
2018-04-20T13:19:55.564Z,30.30
2018-04-20T13:22:24.409Z,30.20
2018-04-20T13:24:53.227Z,30.40
2018-04-20T13:27:22.094Z,30.40
2018-04-20T13:29:51.684Z,30.70
2018-04-20T13:32:20.513Z,30.60
2018-04-20T13:34:49.338Z,30.80
2018-04-20T13:37:18.226Z,30.70
2018-04-20T13:39:47.069Z,30.80
2018-04-20T13:42:16.691Z,30.80
2018-04-20T13:44:45.537Z,30.70
2018-04-20T13:47:14.421Z,30.90
2018-04-20T13:49:44.513Z,30.80
2018-04-20T13:52:13.387Z,30.80
2018-04-20T13:54:42.191Z,31.00
2018-04-20T13:57:11.053Z,30.90
2018-04-20T13:59:39.874Z,30.80
2018-04-20T14:02:08.737Z,30.80
2018-04-20T14:04:38.323Z,30.80
2018-04-20T14:07:07.165Z,30.80
2018-04-20T14:09:36.013Z,31.10
2018-04-20T14:12:06.523Z,31.10
2018-04-20T14:14:35.629Z,31.00
2018-04-20T14:17:04.442Z,31.10
2018-04-20T14:19:33.634Z,31.10
2018-04-20T14:22:03.270Z,31.40
2018-04-20T14:24:32.113Z,31.30
2018-04-20T14:27:00.941Z,31.60
2018-04-20T14:29:29.786Z,31.60
2018-04-20T14:31:58.617Z,31.50
2018-04-20T14:34:27.473Z,31.20
2018-04-20T14:36:57.113Z,30.80
2018-04-20T14:39:26.804Z,30.70
2018-04-20T14:41:56.396Z,30.80
2018-04-20T14:44:25.347Z,30.70
2018-04-20T14:46:54.366Z,30.60
2018-04-20T14:49:23.313Z,30.60
2018-04-20T14:51:52.218Z,30.60
2018-04-20T14:54:21.054Z,30.50
2018-04-20T14:56:50.657Z,30.90
2018-04-20T15:11:27.019Z,30.30
2018-04-20T15:13:56.637Z,30.30
2018-04-20T15:16:25.461Z,30.20
2018-04-20T15:18:54.359Z,30.40
2018-04-20T15:21:23.935Z,30.20
2018-04-20T15:23:52.773Z,30.20
2018-04-20T15:26:21.622Z,30.00
2018-04-20T15:28:50.461Z,30.10
2018-04-20T15:31:20.597Z,30.30
2018-04-20T15:33:49.428Z,30.20
2018-04-20T15:36:18.283Z,30.40
2018-04-20T15:38:47.120Z,30.40
2018-04-20T15:41:16.768Z,30.10
2018-04-20T15:43:46.408Z,30.10
2018-04-20T15:46:15.276Z,30.00
2018-04-20T15:48:44.877Z,30.20
2018-04-20T15:51:13.746Z,30.10
2018-04-20T15:53:42.591Z,30.10
2018-04-20T15:56:11.421Z,30.10
2018-04-20T15:58:40.281Z,30.00
2018-04-20T16:01:09.868Z,29.80
2018-04-20T16:03:39.802Z,29.80
2018-04-20T16:06:09.816Z,29.80
2018-04-20T16:08:39.452Z,29.80
2018-04-20T16:11:08.287Z,29.70
2018-04-20T16:13:37.139Z,29.70
2018-04-20T16:16:06.049Z,29.70
2018-04-20T16:18:34.873Z,29.50
2018-04-20T16:21:04.475Z,29.60
2018-04-20T16:23:33.362Z,29.50
2018-04-20T16:26:02.182Z,29.70
2018-04-20T16:28:31.805Z,29.60
2018-04-20T16:31:00.652Z,29.60
2018-04-20T16:33:29.538Z,29.70
2018-04-20T16:35:58.374Z,29.80
2018-04-20T16:38:27.899Z,29.80
2018-04-20T16:40:56.776Z,29.80
2018-04-20T16:43:25.630Z,29.70
2018-04-20T16:45:55.244Z,29.40
2018-04-20T16:48:24.861Z,29.40
2018-04-20T16:50:54.498Z,29.10
2018-04-20T16:53:23.321Z,29.00
2018-04-20T16:55:52.542Z,28.90
2018-04-20T16:58:21.364Z,28.90
2018-04-20T17:00:50.314Z,28.90
2018-04-20T17:03:19.127Z,28.90
2018-04-20T17:05:48.742Z,28.90
2018-04-20T17:08:17.577Z,28.80
2018-04-20T17:10:46.435Z,28.80
2018-04-20T17:13:15.285Z,28.80
2018-04-20T17:15:44.162Z,28.80
2018-04-20T17:18:13.025Z,28.70
2018-04-20T17:20:42.763Z,28.60
2018-04-20T17:23:11.620Z,28.60
2018-04-20T17:25:40.453Z,28.60
2018-04-20T17:28:09.300Z,28.60
2018-04-20T17:30:38.170Z,28.50
2018-04-20T17:33:07.020Z,28.40
2018-04-20T17:35:35.876Z,28.30
2018-04-20T17:38:04.747Z,28.20
2018-04-20T17:40:33.679Z,28.10
2018-04-20T17:43:02.523Z,28.00
2018-04-20T17:45:31.383Z,27.90
2018-04-20T17:48:00.221Z,27.80
2018-04-20T17:50:29.062Z,27.70
2018-04-20T17:52:57.952Z,27.60
2018-04-20T17:55:26.840Z,27.50
2018-04-20T17:57:55.727Z,27.40
2018-04-20T18:00:24.563Z,27.30
2018-04-20T18:02:53.401Z,27.20
2018-04-20T18:05:22.245Z,27.10
2018-04-20T18:07:52.728Z,26.90
2018-04-20T18:10:21.578Z,26.90
2018-04-20T18:12:50.403Z,26.90
2018-04-20T18:15:19.283Z,26.90
2018-04-20T18:17:48.342Z,26.80
2018-04-20T18:20:17.194Z,26.80
2018-04-20T18:22:46.042Z,26.70
2018-04-20T18:25:15.652Z,26.70
2018-04-20T18:27:45.267Z,26.60
2018-04-20T18:30:14.851Z,26.60
2018-04-20T18:32:43.706Z,26.50
2018-04-20T18:35:12.569Z,26.40
2018-04-20T18:37:41.432Z,26.30
2018-04-20T18:40:11.037Z,26.30
2018-04-20T18:42:40.678Z,26.30
2018-04-20T18:45:09.526Z,26.30
2018-04-20T18:47:38.352Z,26.30
2018-04-20T18:50:07.265Z,26.30
2018-04-20T18:52:36.082Z,26.10
2018-04-20T18:55:04.969Z,25.90
2018-04-20T18:57:33.830Z,25.80
2018-04-20T19:00:02.693Z,25.70
2018-04-20T19:02:31.589Z,25.80
2018-04-20T19:05:00.460Z,25.80
2018-04-20T19:07:29.382Z,25.80
2018-04-20T19:09:58.220Z,25.70
2018-04-20T19:12:27.817Z,25.50
2018-04-20T19:14:57.488Z,25.50
2018-04-20T19:17:26.342Z,25.40
2018-04-20T19:19:55.201Z,25.50
2018-04-20T19:22:24.801Z,25.60
2018-04-20T19:24:54.483Z,25.60
2018-04-20T19:27:23.311Z,25.50
2018-04-20T19:29:52.924Z,25.60
2018-04-20T19:32:21.780Z,25.50
2018-04-20T19:34:50.640Z,25.60
2018-04-20T19:37:19.504Z,25.60
2018-04-20T19:39:48.366Z,25.50
2018-04-20T19:42:18.018Z,25.50
2018-04-20T19:44:46.856Z,25.40
2018-04-20T19:47:16.499Z,25.40
2018-04-20T19:49:45.338Z,25.30
2018-04-20T19:52:14.945Z,25.40
2018-04-20T19:54:43.802Z,25.30
2018-04-20T19:57:14.178Z,25.10
2018-04-20T19:59:43.069Z,25.10
2018-04-20T20:02:11.907Z,25.00
2018-04-20T20:04:41.588Z,24.90
2018-04-20T20:07:10.408Z,24.80
2018-04-20T20:09:40.035Z,24.80
2018-04-20T20:12:09.648Z,24.90
2018-04-20T20:14:38.523Z,24.80
2018-04-20T20:17:08.143Z,24.80
2018-04-20T20:19:37.020Z,24.80
2018-04-20T20:22:06.642Z,24.80
2018-04-20T20:24:35.541Z,24.80
2018-04-20T20:27:04.386Z,24.80
2018-04-20T20:29:33.280Z,24.80
2018-04-20T20:32:02.137Z,24.70
2018-04-20T20:34:31.015Z,24.60
2018-04-20T20:36:59.896Z,24.60
2018-04-20T20:39:28.731Z,24.60
2018-04-20T20:41:57.600Z,24.60
2018-04-20T20:44:26.430Z,24.50
2018-04-20T20:46:56.059Z,24.40
2018-04-20T20:49:24.922Z,24.40
2018-04-20T20:51:59.233Z,24.40
2018-04-20T20:54:28.079Z,24.40
2018-04-20T20:56:57.697Z,24.40
2018-04-20T20:59:27.372Z,24.40
2018-04-20T21:01:56.244Z,24.20
2018-04-20T21:04:25.906Z,24.10
2018-04-20T21:06:54.773Z,24.00
2018-04-20T21:09:23.629Z,23.80
2018-04-20T21:11:52.517Z,23.80
2018-04-20T21:14:21.360Z,23.90
2018-04-20T21:16:50.214Z,23.90
2018-04-20T21:19:19.856Z,23.90
2018-04-20T21:21:48.714Z,23.80
2018-04-20T21:24:17.590Z,23.80
2018-04-20T21:26:47.239Z,23.70
2018-04-20T21:29:16.121Z,23.70
2018-04-20T21:31:45.392Z,23.70
2018-04-20T21:34:15.030Z,23.70
2018-04-20T21:36:43.900Z,23.70
2018-04-20T21:39:12.780Z,23.70
2018-04-20T21:41:42.409Z,23.60
2018-04-20T21:44:11.264Z,23.50
2018-04-20T21:46:40.129Z,23.60
2018-04-20T21:49:09.010Z,23.60
2018-04-20T21:51:37.877Z,23.50
2018-04-20T21:54:06.723Z,23.50
2018-04-20T21:56:35.581Z,23.50
2018-04-20T21:59:04.593Z,23.60
2018-04-20T22:01:33.436Z,23.60
2018-04-20T22:04:02.301Z,23.50
2018-04-20T22:06:31.916Z,23.20
2018-04-20T22:09:01.544Z,23.00
2018-04-20T22:11:30.409Z,22.90
2018-04-20T22:14:00.050Z,22.90
2018-04-20T22:16:28.898Z,22.80
2018-04-20T22:18:57.758Z,22.90
2018-04-20T22:21:26.620Z,22.90
2018-04-20T22:23:55.520Z,23.00
2018-04-20T22:26:24.497Z,23.00
2018-04-20T22:28:53.577Z,23.00
2018-04-20T22:31:23.211Z,23.00
2018-04-20T22:33:52.650Z,22.90
2018-04-20T22:36:21.515Z,22.90
2018-04-20T22:38:50.403Z,22.90
2018-04-20T22:41:19.252Z,22.80
2018-04-20T22:43:48.866Z,22.80
2018-04-20T22:46:18.487Z,22.70
2018-04-20T22:48:47.361Z,22.70
2018-04-20T22:51:16.991Z,22.90
2018-04-20T22:53:45.857Z,22.90
2018-04-20T22:56:14.713Z,23.00
2018-04-20T22:58:43.586Z,23.10
2018-04-20T23:01:13.198Z,23.10
2018-04-20T23:03:42.841Z,23.00
2018-04-20T23:06:11.684Z,23.00
2018-04-20T23:08:41.292Z,22.80
2018-04-20T23:11:10.905Z,22.80
2018-04-20T23:13:40.538Z,22.90
2018-04-20T23:16:09.411Z,22.90
2018-04-20T23:18:38.999Z,23.10
2018-04-20T23:21:08.631Z,23.20
2018-04-20T23:23:37.478Z,23.10
2018-04-20T23:26:06.477Z,23.20
2018-04-20T23:28:35.284Z,23.10
2018-04-20T23:31:04.904Z,23.20
2018-04-20T23:33:33.754Z,23.10
2018-04-20T23:36:02.639Z,23.10
2018-04-20T23:38:31.458Z,23.10
2018-04-20T23:41:01.091Z,23.00
2018-04-20T23:43:29.919Z,22.90
2018-04-20T23:45:58.768Z,23.00
2018-04-20T23:48:27.657Z,22.90
2018-04-20T23:50:57.292Z,22.80
2018-04-20T23:53:26.130Z,22.80
2018-04-20T23:55:55.017Z,22.70
2018-04-20T23:58:23.878Z,22.60
